Copperas Cove, Texas
Current Conditions -  °F | °C
As of 11:56 AM on Thursday 30 Oct 2014 (Local Time) from KHLR Reporting Station
Broken Clouds Broken Clouds  
Wind Chill: 73°   Ceiling: 5000
Heat Index: 73°   Visibility: 10mi
Dew Point: 52°   Wind: 8mph
Humidity: 48%   Direction: 160°SSE
Pressure: 30.16"   Gusts: NA
Location:  31.12°N, 97.9°W
Report Text: KHLR 301656Z 16007KT 10SM BKN050 BKN100 23/11 A3016 RMK AO2 SLP237 T02280111 $
Loading
Personal Weather Stations






























Interactive Weather Map
Tropical Storm Tracking
New forecast layout! Learn more

10-Day Weather Forecast

Advertisements
Track Severe Weather on mobile